sensor_id;sensor_type;location;lat;lon;timestamp;P1;durP1;ratioP1;P2;durP2;ratioP2
79212;SDS011;68639;52.380;9.822;2023-08-31T00:00:15;23.60;;;15.77;;
79212;SDS011;68639;52.380;9.822;2023-08-31T00:02:40;26.52;;;17.98;;
79212;SDS011;68639;52.380;9.822;2023-08-31T00:05:06;33.30;;;19.42;;
79212;SDS011;68639;52.380;9.822;2023-08-31T00:07:31;34.33;;;19.77;;
79212;SDS011;68639;52.380;9.822;2023-08-31T00:09:57;23.30;;;17.42;;
79212;SDS011;68639;52.380;9.822;2023-08-31T00:12:23;23.35;;;17.58;;
79212;SDS011;68639;52.380;9.822;2023-08-31T00:14:49;29.55;;;19.02;;
79212;SDS011;68639;52.380;9.822;2023-08-31T00:17:15;26.20;;;16.10;;
79212;SDS011;68639;52.380;9.822;2023-08-31T00:19:40;26.17;;;18.05;;
79212;SDS011;68639;52.380;9.822;2023-08-31T00:22:05;23.63;;;16.23;;
79212;SDS011;68639;52.380;9.822;2023-08-31T00:24:30;24.30;;;16.73;;
79212;SDS011;68639;52.380;9.822;2023-08-31T00:26:58;26.92;;;18.25;;
79212;SDS011;68639;52.380;9.822;2023-08-31T00:29:23;29.38;;;19.45;;
79212;SDS011;68639;52.380;9.822;2023-08-31T00:31:50;25.88;;;17.15;;
79212;SDS011;68639;52.380;9.822;2023-08-31T00:34:16;23.42;;;17.60;;
79212;SDS011;68639;52.380;9.822;2023-08-31T00:36:42;26.23;;;17.50;;
79212;SDS011;68639;52.380;9.822;2023-08-31T00:39:07;30.30;;;18.77;;
79212;SDS011;68639;52.380;9.822;2023-08-31T00:41:35;29.90;;;16.42;;
79212;SDS011;68639;52.380;9.822;2023-08-31T00:44:01;23.60;;;15.82;;
79212;SDS011;68639;52.380;9.822;2023-08-31T00:46:27;24.33;;;16.90;;
79212;SDS011;68639;52.380;9.822;2023-08-31T00:48:53;26.02;;;16.20;;
79212;SDS011;68639;52.380;9.822;2023-08-31T00:51:18;25.97;;;16.53;;
79212;SDS011;68639;52.380;9.822;2023-08-31T00:53:43;23.13;;;15.73;;
79212;SDS011;68639;52.380;9.822;2023-08-31T00:56:08;24.70;;;16.17;;
79212;SDS011;68639;52.380;9.822;2023-08-31T00:58:34;27.90;;;15.73;;
79212;SDS011;68639;52.380;9.822;2023-08-31T01:03:31;24.40;;;15.53;;
79212;SDS011;68639;52.380;9.822;2023-08-31T01:06:07;27.20;;;15.45;;
79212;SDS011;68639;52.380;9.822;2023-08-31T01:08:45;31.05;;;16.40;;
79212;SDS011;68639;52.380;9.822;2023-08-31T01:14:11;22.65;;;14.52;;
79212;SDS011;68639;52.380;9.822;2023-08-31T01:16:38;24.93;;;15.03;;
79212;SDS011;68639;52.380;9.822;2023-08-31T01:19:06;23.00;;;14.43;;
79212;SDS011;68639;52.380;9.822;2023-08-31T01:21:39;24.50;;;15.40;;
79212;SDS011;68639;52.380;9.822;2023-08-31T01:24:07;20.13;;;14.53;;
79212;SDS011;68639;52.380;9.822;2023-08-31T01:26:32;18.03;;;13.80;;
79212;SDS011;68639;52.380;9.822;2023-08-31T01:28:57;26.60;;;14.90;;
79212;SDS011;68639;52.380;9.822;2023-08-31T01:31:23;25.17;;;15.45;;
79212;SDS011;68639;52.380;9.822;2023-08-31T01:33:48;27.60;;;15.57;;
79212;SDS011;68639;52.380;9.822;2023-08-31T01:36:18;27.37;;;16.00;;
79212;SDS011;68639;52.380;9.822;2023-08-31T01:38:45;23.33;;;14.87;;
79212;SDS011;68639;52.380;9.822;2023-08-31T01:41:13;26.37;;;16.10;;
79212;SDS011;68639;52.380;9.822;2023-08-31T01:43:38;22.13;;;14.33;;
79212;SDS011;68639;52.380;9.822;2023-08-31T01:46:05;24.30;;;14.63;;
79212;SDS011;68639;52.380;9.822;2023-08-31T01:48:31;25.73;;;15.20;;
79212;SDS011;68639;52.380;9.822;2023-08-31T01:51:02;27.17;;;16.10;;
79212;SDS011;68639;52.380;9.822;2023-08-31T01:53:27;29.03;;;16.83;;
79212;SDS011;68639;52.380;9.822;2023-08-31T01:55:53;24.95;;;14.95;;
79212;SDS011;68639;52.380;9.822;2023-08-31T01:58:18;23.35;;;15.63;;
79212;SDS011;68639;52.380;9.822;2023-08-31T02:00:43;27.80;;;17.20;;
79212;SDS011;68639;52.380;9.822;2023-08-31T02:03:09;26.45;;;17.80;;
79212;SDS011;68639;52.380;9.822;2023-08-31T02:05:36;32.20;;;17.33;;
79212;SDS011;68639;52.380;9.822;2023-08-31T02:08:01;25.53;;;16.10;;
79212;SDS011;68639;52.380;9.822;2023-08-31T02:10:26;25.47;;;16.43;;
79212;SDS011;68639;52.380;9.822;2023-08-31T02:12:52;30.07;;;17.83;;
79212;SDS011;68639;52.380;9.822;2023-08-31T02:15:17;24.97;;;16.60;;
79212;SDS011;68639;52.380;9.822;2023-08-31T02:17:42;32.47;;;17.85;;
79212;SDS011;68639;52.380;9.822;2023-08-31T02:20:08;29.40;;;17.13;;
79212;SDS011;68639;52.380;9.822;2023-08-31T02:22:34;30.93;;;17.70;;
79212;SDS011;68639;52.380;9.822;2023-08-31T02:24:59;30.80;;;18.37;;
79212;SDS011;68639;52.380;9.822;2023-08-31T02:27:26;30.53;;;17.63;;
79212;SDS011;68639;52.380;9.822;2023-08-31T02:29:51;27.13;;;16.97;;
79212;SDS011;68639;52.380;9.822;2023-08-31T02:32:16;23.77;;;16.57;;
79212;SDS011;68639;52.380;9.822;2023-08-31T02:34:41;27.00;;;16.93;;
79212;SDS011;68639;52.380;9.822;2023-08-31T02:37:06;28.87;;;17.73;;
79212;SDS011;68639;52.380;9.822;2023-08-31T02:39:32;23.60;;;15.80;;
79212;SDS011;68639;52.380;9.822;2023-08-31T02:41:57;31.07;;;17.13;;
79212;SDS011;68639;52.380;9.822;2023-08-31T02:44:22;28.93;;;17.17;;
79212;SDS011;68639;52.380;9.822;2023-08-31T02:46:48;25.00;;;15.37;;
79212;SDS011;68639;52.380;9.822;2023-08-31T02:49:13;24.57;;;15.23;;
79212;SDS011;68639;52.380;9.822;2023-08-31T02:51:38;34.50;;;17.53;;
79212;SDS011;68639;52.380;9.822;2023-08-31T02:54:03;23.40;;;15.30;;
79212;SDS011;68639;52.380;9.822;2023-08-31T02:56:28;30.60;;;16.52;;
79212;SDS011;68639;52.380;9.822;2023-08-31T02:58:54;32.47;;;16.70;;
79212;SDS011;68639;52.380;9.822;2023-08-31T03:01:19;25.23;;;16.50;;
79212;SDS011;68639;52.380;9.822;2023-08-31T03:03:44;30.03;;;16.43;;
79212;SDS011;68639;52.380;9.822;2023-08-31T03:06:11;26.73;;;14.57;;
79212;SDS011;68639;52.380;9.822;2023-08-31T03:08:36;23.63;;;14.27;;
79212;SDS011;68639;52.380;9.822;2023-08-31T03:11:02;27.87;;;14.53;;
79212;SDS011;68639;52.380;9.822;2023-08-31T03:13:27;27.30;;;15.10;;
79212;SDS011;68639;52.380;9.822;2023-08-31T03:15:52;28.27;;;15.80;;
79212;SDS011;68639;52.380;9.822;2023-08-31T03:18:18;29.67;;;16.30;;
79212;SDS011;68639;52.380;9.822;2023-08-31T03:20:43;26.40;;;15.90;;
79212;SDS011;68639;52.380;9.822;2023-08-31T03:23:08;27.13;;;15.17;;
79212;SDS011;68639;52.380;9.822;2023-08-31T03:25:34;24.20;;;14.70;;
79212;SDS011;68639;52.380;9.822;2023-08-31T03:28:00;22.70;;;14.70;;
79212;SDS011;68639;52.380;9.822;2023-08-31T03:30:25;27.27;;;15.73;;
79212;SDS011;68639;52.380;9.822;2023-08-31T03:32:50;28.47;;;16.17;;
79212;SDS011;68639;52.380;9.822;2023-08-31T03:35:15;25.20;;;15.43;;
79212;SDS011;68639;52.380;9.822;2023-08-31T03:37:41;27.60;;;15.53;;
79212;SDS011;68639;52.380;9.822;2023-08-31T03:40:06;28.27;;;16.93;;
79212;SDS011;68639;52.380;9.822;2023-08-31T03:42:32;30.87;;;15.87;;
79212;SDS011;68639;52.380;9.822;2023-08-31T03:44:58;31.73;;;16.93;;
79212;SDS011;68639;52.380;9.822;2023-08-31T03:47:24;32.37;;;17.43;;
79212;SDS011;68639;52.380;9.822;2023-08-31T03:49:49;27.43;;;16.70;;
79212;SDS011;68639;52.380;9.822;2023-08-31T03:52:14;31.63;;;16.40;;
79212;SDS011;68639;52.380;9.822;2023-08-31T03:54:39;25.10;;;15.77;;
79212;SDS011;68639;52.380;9.822;2023-08-31T03:57:04;23.00;;;14.90;;
79212;SDS011;68639;52.380;9.822;2023-08-31T03:59:30;29.90;;;15.60;;
79212;SDS011;68639;52.380;9.822;2023-08-31T04:01:55;26.63;;;15.70;;
79212;SDS011;68639;52.380;9.822;2023-08-31T04:04:20;25.77;;;16.23;;
79212;SDS011;68639;52.380;9.822;2023-08-31T04:06:45;28.17;;;15.47;;
79212;SDS011;68639;52.380;9.822;2023-08-31T04:09:11;28.80;;;16.60;;
79212;SDS011;68639;52.380;9.822;2023-08-31T04:11:36;22.97;;;14.90;;
79212;SDS011;68639;52.380;9.822;2023-08-31T04:14:01;23.97;;;15.43;;
79212;SDS011;68639;52.380;9.822;2023-08-31T04:16:27;24.07;;;15.57;;
79212;SDS011;68639;52.380;9.822;2023-08-31T04:18:54;24.50;;;16.27;;
79212;SDS011;68639;52.380;9.822;2023-08-31T04:21:19;24.10;;;15.83;;
79212;SDS011;68639;52.380;9.822;2023-08-31T04:23:44;28.67;;;16.73;;
79212;SDS011;68639;52.380;9.822;2023-08-31T04:26:11;25.87;;;15.37;;
79212;SDS011;68639;52.380;9.822;2023-08-31T04:28:37;25.00;;;16.27;;
79212;SDS011;68639;52.380;9.822;2023-08-31T04:31:04;23.93;;;15.30;;
79212;SDS011;68639;52.380;9.822;2023-08-31T04:33:29;25.23;;;15.77;;
79212;SDS011;68639;52.380;9.822;2023-08-31T04:35:54;23.53;;;14.67;;
79212;SDS011;68639;52.380;9.822;2023-08-31T04:38:19;24.20;;;14.97;;
79212;SDS011;68639;52.380;9.822;2023-08-31T04:40:45;22.43;;;14.10;;
79212;SDS011;68639;52.380;9.822;2023-08-31T04:43:10;22.80;;;14.03;;
79212;SDS011;68639;52.380;9.822;2023-08-31T04:45:35;24.63;;;14.82;;
79212;SDS011;68639;52.380;9.822;2023-08-31T04:48:00;26.38;;;14.88;;
79212;SDS011;68639;52.380;9.822;2023-08-31T04:50:26;21.43;;;13.47;;
79212;SDS011;68639;52.380;9.822;2023-08-31T04:52:51;22.15;;;13.13;;
79212;SDS011;68639;52.380;9.822;2023-08-31T04:55:16;19.60;;;13.18;;
79212;SDS011;68639;52.380;9.822;2023-08-31T04:57:41;26.83;;;12.53;;
79212;SDS011;68639;52.380;9.822;2023-08-31T05:00:07;22.63;;;13.07;;
79212;SDS011;68639;52.380;9.822;2023-08-31T05:02:34;21.40;;;13.37;;
79212;SDS011;68639;52.380;9.822;2023-08-31T05:04:59;21.30;;;12.23;;
79212;SDS011;68639;52.380;9.822;2023-08-31T05:07:24;23.23;;;12.97;;
79212;SDS011;68639;52.380;9.822;2023-08-31T05:09:50;23.10;;;13.63;;
79212;SDS011;68639;52.380;9.822;2023-08-31T05:12:15;24.80;;;14.27;;
79212;SDS011;68639;52.380;9.822;2023-08-31T05:14:42;31.40;;;15.50;;
79212;SDS011;68639;52.380;9.822;2023-08-31T05:17:07;25.17;;;15.67;;
79212;SDS011;68639;52.380;9.822;2023-08-31T05:19:32;26.23;;;15.10;;
79212;SDS011;68639;52.380;9.822;2023-08-31T05:21:58;22.02;;;15.57;;
79212;SDS011;68639;52.380;9.822;2023-08-31T05:24:23;26.33;;;16.15;;
79212;SDS011;68639;52.380;9.822;2023-08-31T05:26:51;21.90;;;15.60;;
79212;SDS011;68639;52.380;9.822;2023-08-31T05:29:16;24.20;;;16.23;;
79212;SDS011;68639;52.380;9.822;2023-08-31T05:31:42;28.13;;;17.83;;
79212;SDS011;68639;52.380;9.822;2023-08-31T05:34:09;28.88;;;16.77;;
79212;SDS011;68639;52.380;9.822;2023-08-31T05:36:35;26.17;;;17.42;;
79212;SDS011;68639;52.380;9.822;2023-08-31T05:39:00;25.92;;;17.10;;
79212;SDS011;68639;52.380;9.822;2023-08-31T05:41:25;30.67;;;18.27;;
79212;SDS011;68639;52.380;9.822;2023-08-31T05:43:51;25.48;;;17.17;;
79212;SDS011;68639;52.380;9.822;2023-08-31T05:46:17;34.38;;;17.45;;
79212;SDS011;68639;52.380;9.822;2023-08-31T05:48:42;30.48;;;18.40;;
79212;SDS011;68639;52.380;9.822;2023-08-31T05:51:07;31.58;;;18.27;;
79212;SDS011;68639;52.380;9.822;2023-08-31T05:53:33;27.42;;;19.00;;
79212;SDS011;68639;52.380;9.822;2023-08-31T05:55:58;30.98;;;19.27;;
79212;SDS011;68639;52.380;9.822;2023-08-31T05:58:33;32.72;;;19.80;;
79212;SDS011;68639;52.380;9.822;2023-08-31T06:00:58;26.38;;;18.80;;
79212;SDS011;68639;52.380;9.822;2023-08-31T06:03:24;27.63;;;18.55;;
79212;SDS011;68639;52.380;9.822;2023-08-31T06:05:49;29.75;;;20.17;;
79212;SDS011;68639;52.380;9.822;2023-08-31T06:08:15;29.27;;;19.75;;
79212;SDS011;68639;52.380;9.822;2023-08-31T06:10:40;27.65;;;20.75;;
79212;SDS011;68639;52.380;9.822;2023-08-31T06:13:05;29.02;;;19.88;;
79212;SDS011;68639;52.380;9.822;2023-08-31T06:15:31;27.05;;;20.92;;
79212;SDS011;68639;52.380;9.822;2023-08-31T06:17:56;32.30;;;21.73;;
79212;SDS011;68639;52.380;9.822;2023-08-31T06:20:21;25.33;;;19.98;;
79212;SDS011;68639;52.380;9.822;2023-08-31T06:22:47;28.50;;;21.23;;
79212;SDS011;68639;52.380;9.822;2023-08-31T06:25:12;29.40;;;21.10;;
79212;SDS011;68639;52.380;9.822;2023-08-31T06:27:41;29.42;;;21.58;;
79212;SDS011;68639;52.380;9.822;2023-08-31T06:30:07;27.95;;;22.73;;
79212;SDS011;68639;52.380;9.822;2023-08-31T06:32:33;28.33;;;21.95;;
79212;SDS011;68639;52.380;9.822;2023-08-31T06:34:59;28.67;;;22.80;;
79212;SDS011;68639;52.380;9.822;2023-08-31T06:37:24;26.35;;;21.15;;
79212;SDS011;68639;52.380;9.822;2023-08-31T06:39:49;28.20;;;21.70;;
79212;SDS011;68639;52.380;9.822;2023-08-31T06:42:14;31.52;;;21.88;;
79212;SDS011;68639;52.380;9.822;2023-08-31T06:44:39;25.40;;;20.73;;
79212;SDS011;68639;52.380;9.822;2023-08-31T06:47:05;25.13;;;19.83;;
79212;SDS011;68639;52.380;9.822;2023-08-31T06:49:30;25.75;;;20.05;;
79212;SDS011;68639;52.380;9.822;2023-08-31T06:51:57;27.58;;;21.20;;
79212;SDS011;68639;52.380;9.822;2023-08-31T06:54:23;28.30;;;20.48;;
79212;SDS011;68639;52.380;9.822;2023-08-31T06:56:48;30.45;;;20.17;;
79212;SDS011;68639;52.380;9.822;2023-08-31T06:59:13;26.35;;;20.00;;
79212;SDS011;68639;52.380;9.822;2023-08-31T07:01:38;27.83;;;19.85;;
79212;SDS011;68639;52.380;9.822;2023-08-31T07:04:04;27.67;;;20.15;;
79212;SDS011;68639;52.380;9.822;2023-08-31T07:06:29;23.15;;;19.13;;
79212;SDS011;68639;52.380;9.822;2023-08-31T07:08:54;24.60;;;19.55;;
79212;SDS011;68639;52.380;9.822;2023-08-31T07:11:20;24.83;;;18.83;;
79212;SDS011;68639;52.380;9.822;2023-08-31T07:13:45;27.80;;;18.80;;
79212;SDS011;68639;52.380;9.822;2023-08-31T07:16:10;22.65;;;17.55;;
79212;SDS011;68639;52.380;9.822;2023-08-31T07:18:36;22.67;;;17.00;;
79212;SDS011;68639;52.380;9.822;2023-08-31T07:21:01;23.02;;;16.98;;
79212;SDS011;68639;52.380;9.822;2023-08-31T07:23:26;24.65;;;18.95;;
79212;SDS011;68639;52.380;9.822;2023-08-31T07:25:52;24.98;;;17.65;;
79212;SDS011;68639;52.380;9.822;2023-08-31T07:28:17;21.58;;;16.55;;
79212;SDS011;68639;52.380;9.822;2023-08-31T07:30:43;26.00;;;17.67;;
79212;SDS011;68639;52.380;9.822;2023-08-31T07:33:08;22.02;;;17.20;;
79212;SDS011;68639;52.380;9.822;2023-08-31T07:35:33;25.40;;;15.50;;
79212;SDS011;68639;52.380;9.822;2023-08-31T07:37:58;18.60;;;15.57;;
79212;SDS011;68639;52.380;9.822;2023-08-31T07:40:24;20.95;;;16.40;;
79212;SDS011;68639;52.380;9.822;2023-08-31T07:42:50;23.30;;;16.17;;
79212;SDS011;68639;52.380;9.822;2023-08-31T07:45:16;20.83;;;14.15;;
79212;SDS011;68639;52.380;9.822;2023-08-31T07:47:41;16.80;;;13.38;;
79212;SDS011;68639;52.380;9.822;2023-08-31T07:50:06;20.00;;;13.10;;
79212;SDS011;68639;52.380;9.822;2023-08-31T07:52:32;16.60;;;12.23;;
79212;SDS011;68639;52.380;9.822;2023-08-31T07:54:57;14.57;;;11.52;;
79212;SDS011;68639;52.380;9.822;2023-08-31T07:57:22;13.52;;;10.35;;
79212;SDS011;68639;52.380;9.822;2023-08-31T07:59:47;15.57;;;10.63;;
79212;SDS011;68639;52.380;9.822;2023-08-31T08:02:13;11.73;;;10.15;;
79212;SDS011;68639;52.380;9.822;2023-08-31T08:04:38;13.27;;;9.90;;
79212;SDS011;68639;52.380;9.822;2023-08-31T08:07:03;13.20;;;8.80;;
79212;SDS011;68639;52.380;9.822;2023-08-31T08:09:29;14.10;;;9.18;;
79212;SDS011;68639;52.380;9.822;2023-08-31T08:11:54;17.10;;;8.65;;
79212;SDS011;68639;52.380;9.822;2023-08-31T08:14:20;11.52;;;9.25;;
79212;SDS011;68639;52.380;9.822;2023-08-31T08:16:45;12.65;;;9.15;;
79212;SDS011;68639;52.380;9.822;2023-08-31T08:19:10;11.95;;;7.75;;
79212;SDS011;68639;52.380;9.822;2023-08-31T08:21:35;10.27;;;8.60;;
79212;SDS011;68639;52.380;9.822;2023-08-31T08:24:01;11.05;;;8.18;;
79212;SDS011;68639;52.380;9.822;2023-08-31T08:26:26;15.18;;;9.13;;
79212;SDS011;68639;52.380;9.822;2023-08-31T08:28:51;14.20;;;9.50;;
79212;SDS011;68639;52.380;9.822;2023-08-31T08:31:16;10.35;;;8.07;;
79212;SDS011;68639;52.380;9.822;2023-08-31T08:33:41;11.52;;;7.90;;
79212;SDS011;68639;52.380;9.822;2023-08-31T08:36:07;11.20;;;7.80;;
79212;SDS011;68639;52.380;9.822;2023-08-31T08:38:32;9.93;;;7.47;;
79212;SDS011;68639;52.380;9.822;2023-08-31T08:40:57;9.95;;;7.55;;
79212;SDS011;68639;52.380;9.822;2023-08-31T08:43:26;10.80;;;7.28;;
79212;SDS011;68639;52.380;9.822;2023-08-31T08:45:52;10.57;;;7.38;;
79212;SDS011;68639;52.380;9.822;2023-08-31T08:48:17;9.02;;;6.13;;
79212;SDS011;68639;52.380;9.822;2023-08-31T08:50:43;11.57;;;6.20;;
79212;SDS011;68639;52.380;9.822;2023-08-31T08:53:08;10.05;;;6.18;;
79212;SDS011;68639;52.380;9.822;2023-08-31T08:55:33;9.88;;;5.90;;
79212;SDS011;68639;52.380;9.822;2023-08-31T08:57:59;8.30;;;5.65;;
79212;SDS011;68639;52.380;9.822;2023-08-31T09:00:28;9.20;;;5.70;;
79212;SDS011;68639;52.380;9.822;2023-08-31T09:02:54;10.95;;;6.28;;
79212;SDS011;68639;52.380;9.822;2023-08-31T09:05:19;9.70;;;5.80;;
79212;SDS011;68639;52.380;9.822;2023-08-31T09:10:39;7.70;;;5.70;;
79212;SDS011;68639;52.380;9.822;2023-08-31T09:13:05;8.30;;;5.85;;
79212;SDS011;68639;52.380;9.822;2023-08-31T09:18:04;12.05;;;6.32;;
79212;SDS011;68639;52.380;9.822;2023-08-31T09:20:29;9.02;;;5.65;;
79212;SDS011;68639;52.380;9.822;2023-08-31T09:22:55;11.70;;;5.75;;
79212;SDS011;68639;52.380;9.822;2023-08-31T09:25:21;9.35;;;5.68;;
79212;SDS011;68639;52.380;9.822;2023-08-31T09:27:46;9.15;;;6.30;;
79212;SDS011;68639;52.380;9.822;2023-08-31T09:30:12;9.95;;;5.80;;
79212;SDS011;68639;52.380;9.822;2023-08-31T09:32:38;9.45;;;5.35;;
79212;SDS011;68639;52.380;9.822;2023-08-31T09:35:03;11.95;;;5.53;;
79212;SDS011;68639;52.380;9.822;2023-08-31T09:37:33;9.02;;;4.93;;
79212;SDS011;68639;52.380;9.822;2023-08-31T09:40:01;8.32;;;4.90;;
79212;SDS011;68639;52.380;9.822;2023-08-31T09:42:36;12.25;;;4.78;;
79212;SDS011;68639;52.380;9.822;2023-08-31T09:45:05;9.00;;;4.88;;
79212;SDS011;68639;52.380;9.822;2023-08-31T09:47:30;9.30;;;4.70;;
79212;SDS011;68639;52.380;9.822;2023-08-31T09:49:56;10.63;;;5.55;;
79212;SDS011;68639;52.380;9.822;2023-08-31T09:52:22;9.98;;;5.30;;
79212;SDS011;68639;52.380;9.822;2023-08-31T09:54:48;9.70;;;5.35;;
79212;SDS011;68639;52.380;9.822;2023-08-31T09:57:13;6.30;;;4.82;;
79212;SDS011;68639;52.380;9.822;2023-08-31T09:59:39;7.15;;;5.20;;
79212;SDS011;68639;52.380;9.822;2023-08-31T10:02:05;7.00;;;4.78;;
79212;SDS011;68639;52.380;9.822;2023-08-31T10:04:31;7.35;;;4.50;;
79212;SDS011;68639;52.380;9.822;2023-08-31T10:06:58;8.65;;;5.45;;
79212;SDS011;68639;52.380;9.822;2023-08-31T10:09:23;8.27;;;4.35;;
79212;SDS011;68639;52.380;9.822;2023-08-31T10:11:48;8.80;;;4.25;;
79212;SDS011;68639;52.380;9.822;2023-08-31T10:14:14;8.95;;;4.75;;
79212;SDS011;68639;52.380;9.822;2023-08-31T10:16:40;6.50;;;4.50;;
79212;SDS011;68639;52.380;9.822;2023-08-31T10:19:06;8.48;;;4.22;;
79212;SDS011;68639;52.380;9.822;2023-08-31T10:21:31;7.40;;;3.92;;
79212;SDS011;68639;52.380;9.822;2023-08-31T10:23:57;7.82;;;3.83;;
79212;SDS011;68639;52.380;9.822;2023-08-31T10:26:26;9.15;;;3.90;;
79212;SDS011;68639;52.380;9.822;2023-08-31T10:28:51;5.25;;;3.40;;
79212;SDS011;68639;52.380;9.822;2023-08-31T10:31:17;8.88;;;3.95;;
79212;SDS011;68639;52.380;9.822;2023-08-31T10:33:46;10.57;;;4.10;;
79212;SDS011;68639;52.380;9.822;2023-08-31T10:36:15;9.18;;;4.03;;
79212;SDS011;68639;52.380;9.822;2023-08-31T10:38:42;6.15;;;4.07;;
79212;SDS011;68639;52.380;9.822;2023-08-31T10:46:27;6.80;;;4.43;;
79212;SDS011;68639;52.380;9.822;2023-08-31T10:48:57;11.35;;;4.70;;
79212;SDS011;68639;52.380;9.822;2023-08-31T10:51:23;7.30;;;4.85;;
79212;SDS011;68639;52.380;9.822;2023-08-31T10:53:48;8.88;;;5.35;;
79212;SDS011;68639;52.380;9.822;2023-08-31T10:56:17;7.30;;;4.75;;
79212;SDS011;68639;52.380;9.822;2023-08-31T10:58:43;7.05;;;4.35;;
79212;SDS011;68639;52.380;9.822;2023-08-31T11:01:09;7.93;;;4.70;;
79212;SDS011;68639;52.380;9.822;2023-08-31T11:03:56;6.22;;;4.50;;
79212;SDS011;68639;52.380;9.822;2023-08-31T11:06:20;6.32;;;3.72;;
79212;SDS011;68639;52.380;9.822;2023-08-31T11:08:46;5.47;;;3.58;;
79212;SDS011;68639;52.380;9.822;2023-08-31T11:11:12;8.20;;;3.75;;
79212;SDS011;68639;52.380;9.822;2023-08-31T11:13:37;6.68;;;3.90;;
79212;SDS011;68639;52.380;9.822;2023-08-31T11:16:03;5.38;;;3.30;;
79212;SDS011;68639;52.380;9.822;2023-08-31T11:18:28;5.68;;;3.25;;
79212;SDS011;68639;52.380;9.822;2023-08-31T11:20:53;5.72;;;3.17;;
79212;SDS011;68639;52.380;9.822;2023-08-31T11:23:20;5.97;;;2.58;;
79212;SDS011;68639;52.380;9.822;2023-08-31T11:25:46;5.57;;;3.20;;
79212;SDS011;68639;52.380;9.822;2023-08-31T11:28:12;6.47;;;2.80;;
79212;SDS011;68639;52.380;9.822;2023-08-31T11:30:37;6.30;;;3.13;;
79212;SDS011;68639;52.380;9.822;2023-08-31T11:33:03;5.35;;;3.05;;
79212;SDS011;68639;52.380;9.822;2023-08-31T11:35:36;6.57;;;3.30;;
79212;SDS011;68639;52.380;9.822;2023-08-31T11:38:02;6.18;;;3.42;;
79212;SDS011;68639;52.380;9.822;2023-08-31T11:40:28;5.45;;;3.00;;
79212;SDS011;68639;52.380;9.822;2023-08-31T11:42:53;6.00;;;2.92;;
79212;SDS011;68639;52.380;9.822;2023-08-31T11:45:19;6.05;;;3.30;;
79212;SDS011;68639;52.380;9.822;2023-08-31T11:47:45;5.78;;;3.45;;
79212;SDS011;68639;52.380;9.822;2023-08-31T11:50:11;7.25;;;3.40;;
79212;SDS011;68639;52.380;9.822;2023-08-31T11:52:38;5.95;;;3.47;;
79212;SDS011;68639;52.380;9.822;2023-08-31T11:55:10;7.18;;;3.10;;
79212;SDS011;68639;52.380;9.822;2023-08-31T11:57:35;6.55;;;2.80;;
79212;SDS011;68639;52.380;9.822;2023-08-31T12:00:00;4.43;;;2.75;;
79212;SDS011;68639;52.380;9.822;2023-08-31T12:02:28;7.85;;;2.63;;
79212;SDS011;68639;52.380;9.822;2023-08-31T12:04:53;5.55;;;2.47;;
79212;SDS011;68639;52.380;9.822;2023-08-31T12:07:21;4.65;;;2.30;;
79212;SDS011;68639;52.380;9.822;2023-08-31T12:09:47;5.82;;;2.42;;
79212;SDS011;68639;52.380;9.822;2023-08-31T12:12:15;4.47;;;2.38;;
79212;SDS011;68639;52.380;9.822;2023-08-31T12:14:43;6.03;;;2.30;;
79212;SDS011;68639;52.380;9.822;2023-08-31T12:17:08;7.82;;;2.80;;
79212;SDS011;68639;52.380;9.822;2023-08-31T12:19:36;6.22;;;2.28;;
79212;SDS011;68639;52.380;9.822;2023-08-31T12:22:01;4.25;;;2.00;;
79212;SDS011;68639;52.380;9.822;2023-08-31T12:24:27;4.93;;;2.33;;
79212;SDS011;68639;52.380;9.822;2023-08-31T12:26:52;4.82;;;2.25;;
79212;SDS011;68639;52.380;9.822;2023-08-31T12:29:21;9.75;;;2.10;;
79212;SDS011;68639;52.380;9.822;2023-08-31T12:31:46;5.03;;;1.70;;
79212;SDS011;68639;52.380;9.822;2023-08-31T12:34:12;4.22;;;2.00;;
79212;SDS011;68639;52.380;9.822;2023-08-31T12:36:37;6.43;;;1.77;;
79212;SDS011;68639;52.380;9.822;2023-08-31T12:39:05;4.53;;;1.75;;
79212;SDS011;68639;52.380;9.822;2023-08-31T12:41:33;5.10;;;1.60;;
79212;SDS011;68639;52.380;9.822;2023-08-31T12:43:58;3.15;;;1.20;;
79212;SDS011;68639;52.380;9.822;2023-08-31T12:46:24;9.50;;;1.30;;
79212;SDS011;68639;52.380;9.822;2023-08-31T12:48:49;4.78;;;1.80;;
79212;SDS011;68639;52.380;9.822;2023-08-31T12:51:15;5.18;;;1.52;;
79212;SDS011;68639;52.380;9.822;2023-08-31T12:53:40;2.90;;;1.30;;
79212;SDS011;68639;52.380;9.822;2023-08-31T12:56:06;6.03;;;1.52;;
79212;SDS011;68639;52.380;9.822;2023-08-31T12:58:31;3.38;;;1.45;;
79212;SDS011;68639;52.380;9.822;2023-08-31T13:00:59;5.95;;;1.40;;
79212;SDS011;68639;52.380;9.822;2023-08-31T13:03:25;5.50;;;1.40;;
79212;SDS011;68639;52.380;9.822;2023-08-31T13:05:50;3.13;;;1.40;;
79212;SDS011;68639;52.380;9.822;2023-08-31T13:08:15;2.55;;;1.40;;
79212;SDS011;68639;52.380;9.822;2023-08-31T13:10:41;4.18;;;1.67;;
79212;SDS011;68639;52.380;9.822;2023-08-31T13:13:06;3.40;;;1.25;;
79212;SDS011;68639;52.380;9.822;2023-08-31T13:15:31;3.70;;;1.25;;
79212;SDS011;68639;52.380;9.822;2023-08-31T13:17:57;6.43;;;1.50;;
79212;SDS011;68639;52.380;9.822;2023-08-31T13:20:22;4.20;;;1.00;;
79212;SDS011;68639;52.380;9.822;2023-08-31T13:22:48;11.25;;;1.25;;
79212;SDS011;68639;52.380;9.822;2023-08-31T13:25:13;1.83;;;1.10;;
79212;SDS011;68639;52.380;9.822;2023-08-31T13:27:38;5.50;;;1.10;;
79212;SDS011;68639;52.380;9.822;2023-08-31T13:30:04;4.57;;;1.05;;
79212;SDS011;68639;52.380;9.822;2023-08-31T13:32:31;6.78;;;1.33;;
79212;SDS011;68639;52.380;9.822;2023-08-31T13:34:56;3.38;;;1.08;;
79212;SDS011;68639;52.380;9.822;2023-08-31T13:37:21;6.13;;;1.00;;
79212;SDS011;68639;52.380;9.822;2023-08-31T13:39:49;3.72;;;1.10;;
79212;SDS011;68639;52.380;9.822;2023-08-31T13:42:15;5.10;;;1.05;;
79212;SDS011;68639;52.380;9.822;2023-08-31T13:44:40;2.88;;;0.60;;
79212;SDS011;68639;52.380;9.822;2023-08-31T13:47:05;3.20;;;0.80;;
79212;SDS011;68639;52.380;9.822;2023-08-31T13:49:31;4.88;;;0.90;;
79212;SDS011;68639;52.380;9.822;2023-08-31T13:51:56;2.57;;;0.53;;
79212;SDS011;68639;52.380;9.822;2023-08-31T13:54:21;3.60;;;0.60;;
79212;SDS011;68639;52.380;9.822;2023-08-31T13:56:46;2.00;;;0.65;;
79212;SDS011;68639;52.380;9.822;2023-08-31T13:59:15;3.85;;;0.68;;
79212;SDS011;68639;52.380;9.822;2023-08-31T14:01:40;5.13;;;1.00;;
79212;SDS011;68639;52.380;9.822;2023-08-31T14:04:05;2.33;;;0.70;;
79212;SDS011;68639;52.380;9.822;2023-08-31T14:06:30;3.67;;;0.70;;
79212;SDS011;68639;52.380;9.822;2023-08-31T14:08:56;2.70;;;0.75;;
79212;SDS011;68639;52.380;9.822;2023-08-31T14:11:21;4.38;;;0.90;;
79212;SDS011;68639;52.380;9.822;2023-08-31T14:13:46;2.45;;;0.50;;
79212;SDS011;68639;52.380;9.822;2023-08-31T14:16:11;2.85;;;0.70;;
79212;SDS011;68639;52.380;9.822;2023-08-31T14:18:37;2.88;;;0.65;;
79212;SDS011;68639;52.380;9.822;2023-08-31T14:21:02;2.58;;;0.60;;
79212;SDS011;68639;52.380;9.822;2023-08-31T14:23:29;1.92;;;0.63;;
79212;SDS011;68639;52.380;9.822;2023-08-31T14:25:54;1.85;;;0.40;;
79212;SDS011;68639;52.380;9.822;2023-08-31T14:28:19;2.00;;;0.60;;
79212;SDS011;68639;52.380;9.822;2023-08-31T14:30:44;1.92;;;0.50;;
79212;SDS011;68639;52.380;9.822;2023-08-31T14:33:10;0.90;;;0.43;;
79212;SDS011;68639;52.380;9.822;2023-08-31T14:35:38;3.25;;;0.70;;
79212;SDS011;68639;52.380;9.822;2023-08-31T14:38:04;2.08;;;0.60;;
79212;SDS011;68639;52.380;9.822;2023-08-31T14:40:29;2.72;;;0.70;;